sensor_id;sensor_type;location;lat;lon;timestamp;P1;durP1;ratioP1;P2;durP2;ratioP2
48789;SDS011;41718;51.980;5.734;2023-04-03T00:01:59;3.10;;;1.60;;
48789;SDS011;41718;51.980;5.734;2023-04-03T00:07:01;2.92;;;1.52;;
48789;SDS011;41718;51.980;5.734;2023-04-03T00:12:02;7.05;;;2.38;;
48789;SDS011;41718;51.980;5.734;2023-04-03T00:17:04;5.35;;;2.20;;
48789;SDS011;41718;51.980;5.734;2023-04-03T00:22:06;2.38;;;1.83;;
48789;SDS011;41718;51.980;5.734;2023-04-03T00:27:07;4.03;;;2.40;;
48789;SDS011;41718;51.980;5.734;2023-04-03T00:32:09;3.53;;;1.30;;
48789;SDS011;41718;51.980;5.734;2023-04-03T00:37:11;3.35;;;1.90;;
48789;SDS011;41718;51.980;5.734;2023-04-03T00:42:12;4.07;;;1.80;;
48789;SDS011;41718;51.980;5.734;2023-04-03T00:47:15;5.22;;;3.67;;
48789;SDS011;41718;51.980;5.734;2023-04-03T00:52:19;2.78;;;1.67;;
48789;SDS011;41718;51.980;5.734;2023-04-03T00:57:26;1.70;;;1.60;;
48789;SDS011;41718;51.980;5.734;2023-04-03T01:02:29;3.55;;;1.55;;
48789;SDS011;41718;51.980;5.734;2023-04-03T01:07:30;5.03;;;1.98;;
48789;SDS011;41718;51.980;5.734;2023-04-03T01:12:34;4.65;;;1.65;;
48789;SDS011;41718;51.980;5.734;2023-04-03T01:17:39;1.83;;;1.50;;
48789;SDS011;41718;51.980;5.734;2023-04-03T01:27:57;2.35;;;1.48;;
48789;SDS011;41718;51.980;5.734;2023-04-03T01:32:58;2.60;;;1.65;;
48789;SDS011;41718;51.980;5.734;2023-04-03T01:38:00;2.50;;;2.22;;
48789;SDS011;41718;51.980;5.734;2023-04-03T01:43:01;4.32;;;2.17;;
48789;SDS011;41718;51.980;5.734;2023-04-03T01:48:03;2.28;;;1.45;;
48789;SDS011;41718;51.980;5.734;2023-04-03T01:53:04;4.20;;;1.45;;
48789;SDS011;41718;51.980;5.734;2023-04-03T01:58:06;5.95;;;1.95;;
48789;SDS011;41718;51.980;5.734;2023-04-03T02:03:07;4.40;;;2.47;;
48789;SDS011;41718;51.980;5.734;2023-04-03T02:08:09;3.53;;;1.85;;
48789;SDS011;41718;51.980;5.734;2023-04-03T02:13:11;1.85;;;1.58;;
48789;SDS011;41718;51.980;5.734;2023-04-03T02:18:14;4.70;;;1.88;;
48789;SDS011;41718;51.980;5.734;2023-04-03T02:23:16;7.15;;;1.92;;
48789;SDS011;41718;51.980;5.734;2023-04-03T02:28:18;2.78;;;1.75;;
48789;SDS011;41718;51.980;5.734;2023-04-03T02:33:19;3.70;;;2.58;;
48789;SDS011;41718;51.980;5.734;2023-04-03T02:38:21;7.20;;;2.28;;
48789;SDS011;41718;51.980;5.734;2023-04-03T02:43:23;3.20;;;2.10;;
48789;SDS011;41718;51.980;5.734;2023-04-03T02:48:25;4.25;;;2.08;;
48789;SDS011;41718;51.980;5.734;2023-04-03T02:53:27;2.88;;;1.67;;
48789;SDS011;41718;51.980;5.734;2023-04-03T02:58:28;4.78;;;2.00;;
48789;SDS011;41718;51.980;5.734;2023-04-03T03:03:30;4.43;;;1.77;;
48789;SDS011;41718;51.980;5.734;2023-04-03T03:08:32;3.42;;;1.98;;
48789;SDS011;41718;51.980;5.734;2023-04-03T03:13:34;5.30;;;2.40;;
48789;SDS011;41718;51.980;5.734;2023-04-03T03:18:36;2.47;;;1.75;;
48789;SDS011;41718;51.980;5.734;2023-04-03T03:23:37;3.58;;;1.75;;
48789;SDS011;41718;51.980;5.734;2023-04-03T03:28:39;5.25;;;2.38;;
48789;SDS011;41718;51.980;5.734;2023-04-03T03:33:41;3.72;;;2.75;;
48789;SDS011;41718;51.980;5.734;2023-04-03T03:38:43;5.63;;;2.03;;
48789;SDS011;41718;51.980;5.734;2023-04-03T03:43:44;3.65;;;2.05;;
48789;SDS011;41718;51.980;5.734;2023-04-03T03:48:46;6.82;;;2.28;;
48789;SDS011;41718;51.980;5.734;2023-04-03T03:53:47;8.07;;;2.55;;
48789;SDS011;41718;51.980;5.734;2023-04-03T03:58:49;5.25;;;2.17;;
48789;SDS011;41718;51.980;5.734;2023-04-03T04:03:50;3.58;;;1.77;;
48789;SDS011;41718;51.980;5.734;2023-04-03T04:08:52;9.50;;;1.88;;
48789;SDS011;41718;51.980;5.734;2023-04-03T04:13:54;2.88;;;1.80;;
48789;SDS011;41718;51.980;5.734;2023-04-03T04:18:56;3.40;;;1.60;;
48789;SDS011;41718;51.980;5.734;2023-04-03T04:23:57;4.88;;;2.30;;
48789;SDS011;41718;51.980;5.734;2023-04-03T04:28:59;4.88;;;1.90;;
48789;SDS011;41718;51.980;5.734;2023-04-03T04:34:01;4.70;;;2.00;;
48789;SDS011;41718;51.980;5.734;2023-04-03T04:39:02;2.72;;;2.10;;
48789;SDS011;41718;51.980;5.734;2023-04-03T04:44:04;5.28;;;2.53;;
48789;SDS011;41718;51.980;5.734;2023-04-03T04:49:05;6.25;;;2.70;;
48789;SDS011;41718;51.980;5.734;2023-04-03T04:54:07;7.32;;;2.40;;
48789;SDS011;41718;51.980;5.734;2023-04-03T04:59:08;3.08;;;2.15;;
48789;SDS011;41718;51.980;5.734;2023-04-03T05:04:10;4.47;;;2.00;;
48789;SDS011;41718;51.980;5.734;2023-04-03T05:09:13;5.72;;;2.30;;
48789;SDS011;41718;51.980;5.734;2023-04-03T05:14:15;9.15;;;2.92;;
48789;SDS011;41718;51.980;5.734;2023-04-03T05:19:17;5.93;;;2.80;;
48789;SDS011;41718;51.980;5.734;2023-04-03T05:24:18;6.47;;;2.67;;
48789;SDS011;41718;51.980;5.734;2023-04-03T05:29:20;6.25;;;2.72;;
48789;SDS011;41718;51.980;5.734;2023-04-03T05:34:22;7.32;;;2.95;;
48789;SDS011;41718;51.980;5.734;2023-04-03T05:39:24;5.88;;;3.42;;
48789;SDS011;41718;51.980;5.734;2023-04-03T05:44:26;7.93;;;2.50;;
48789;SDS011;41718;51.980;5.734;2023-04-03T05:49:28;5.05;;;2.45;;
48789;SDS011;41718;51.980;5.734;2023-04-03T05:54:30;11.32;;;2.60;;
48789;SDS011;41718;51.980;5.734;2023-04-03T05:59:31;9.30;;;2.83;;
48789;SDS011;41718;51.980;5.734;2023-04-03T06:04:33;4.60;;;3.28;;
48789;SDS011;41718;51.980;5.734;2023-04-03T06:09:35;6.18;;;2.90;;
48789;SDS011;41718;51.980;5.734;2023-04-03T06:14:36;8.23;;;3.95;;
48789;SDS011;41718;51.980;5.734;2023-04-03T06:19:38;9.30;;;3.85;;
48789;SDS011;41718;51.980;5.734;2023-04-03T06:24:40;8.77;;;4.35;;
48789;SDS011;41718;51.980;5.734;2023-04-03T06:29:41;5.47;;;3.67;;
48789;SDS011;41718;51.980;5.734;2023-04-03T06:34:43;10.27;;;4.03;;
48789;SDS011;41718;51.980;5.734;2023-04-03T06:39:44;3.85;;;2.67;;
48789;SDS011;41718;51.980;5.734;2023-04-03T06:44:47;5.93;;;3.63;;
48789;SDS011;41718;51.980;5.734;2023-04-03T06:49:49;6.35;;;2.83;;
48789;SDS011;41718;51.980;5.734;2023-04-03T06:54:50;5.68;;;2.90;;
48789;SDS011;41718;51.980;5.734;2023-04-03T06:59:58;7.15;;;3.40;;
48789;SDS011;41718;51.980;5.734;2023-04-03T07:04:59;6.60;;;2.75;;
48789;SDS011;41718;51.980;5.734;2023-04-03T07:10:01;4.18;;;2.30;;
48789;SDS011;41718;51.980;5.734;2023-04-03T07:15:03;3.78;;;2.30;;
48789;SDS011;41718;51.980;5.734;2023-04-03T07:20:06;7.38;;;2.20;;
48789;SDS011;41718;51.980;5.734;2023-04-03T07:25:09;5.32;;;1.80;;
48789;SDS011;41718;51.980;5.734;2023-04-03T07:30:11;4.63;;;2.10;;
48789;SDS011;41718;51.980;5.734;2023-04-03T07:35:15;4.20;;;2.08;;
48789;SDS011;41718;51.980;5.734;2023-04-03T07:40:17;3.75;;;1.55;;
48789;SDS011;41718;51.980;5.734;2023-04-03T07:45:20;4.00;;;2.25;;
48789;SDS011;41718;51.980;5.734;2023-04-03T07:50:23;3.25;;;1.38;;
48789;SDS011;41718;51.980;5.734;2023-04-03T07:55:25;3.63;;;1.75;;
48789;SDS011;41718;51.980;5.734;2023-04-03T08:00:27;4.35;;;1.25;;
48789;SDS011;41718;51.980;5.734;2023-04-03T08:05:28;6.05;;;1.30;;
48789;SDS011;41718;51.980;5.734;2023-04-03T08:10:30;3.47;;;1.20;;
48789;SDS011;41718;51.980;5.734;2023-04-03T08:15:32;4.13;;;1.45;;
48789;SDS011;41718;51.980;5.734;2023-04-03T08:20:34;4.43;;;1.63;;
48789;SDS011;41718;51.980;5.734;2023-04-03T08:25:42;1.90;;;1.17;;
48789;SDS011;41718;51.980;5.734;2023-04-03T08:30:44;3.50;;;1.15;;
48789;SDS011;41718;51.980;5.734;2023-04-03T08:35:45;1.92;;;1.10;;
48789;SDS011;41718;51.980;5.734;2023-04-03T08:40:47;1.40;;;1.15;;
48789;SDS011;41718;51.980;5.734;2023-04-03T08:45:50;4.00;;;0.90;;
48789;SDS011;41718;51.980;5.734;2023-04-03T08:50:56;2.40;;;0.95;;
48789;SDS011;41718;51.980;5.734;2023-04-03T08:56:08;2.03;;;0.70;;
48789;SDS011;41718;51.980;5.734;2023-04-03T09:01:21;1.58;;;0.60;;
48789;SDS011;41718;51.980;5.734;2023-04-03T09:06:31;2.50;;;0.80;;
48789;SDS011;41718;51.980;5.734;2023-04-03T09:22:11;1.48;;;0.55;;
48789;SDS011;41718;51.980;5.734;2023-04-03T09:27:17;0.30;;;0.30;;
48789;SDS011;41718;51.980;5.734;2023-04-03T09:37:37;2.40;;;0.45;;
48789;SDS011;41718;51.980;5.734;2023-04-03T09:42:41;0.93;;;0.40;;
48789;SDS011;41718;51.980;5.734;2023-04-03T09:47:48;0.95;;;0.85;;
48789;SDS011;41718;51.980;5.734;2023-04-03T09:53:23;2.22;;;0.47;;
48789;SDS011;41718;51.980;5.734;2023-04-03T09:58:29;0.75;;;0.50;;
48789;SDS011;41718;51.980;5.734;2023-04-03T10:04:02;0.45;;;0.43;;
48789;SDS011;41718;51.980;5.734;2023-04-03T10:14:33;1.70;;;0.60;;
48789;SDS011;41718;51.980;5.734;2023-04-03T10:35:48;0.63;;;0.52;;
48789;SDS011;41718;51.980;5.734;2023-04-03T10:41:08;2.30;;;0.80;;
48789;SDS011;41718;51.980;5.734;2023-04-03T10:46:23;1.20;;;0.65;;
48789;SDS011;41718;51.980;5.734;2023-04-03T10:51:48;5.35;;;1.02;;
48789;SDS011;41718;51.980;5.734;2023-04-03T10:57:04;3.33;;;0.93;;
48789;SDS011;41718;51.980;5.734;2023-04-03T11:02:17;2.92;;;0.98;;
48789;SDS011;41718;51.980;5.734;2023-04-03T11:07:43;2.00;;;1.03;;
48789;SDS011;41718;51.980;5.734;2023-04-03T11:12:50;5.28;;;0.85;;
48789;SDS011;41718;51.980;5.734;2023-04-03T11:18:08;2.35;;;0.70;;
48789;SDS011;41718;51.980;5.734;2023-04-03T11:23:26;2.78;;;0.75;;
48789;SDS011;41718;51.980;5.734;2023-04-03T11:28:39;2.97;;;0.90;;
48789;SDS011;41718;51.980;5.734;2023-04-03T11:39:24;2.20;;;1.45;;
48789;SDS011;41718;51.980;5.734;2023-04-03T11:44:36;2.30;;;0.75;;
48789;SDS011;41718;51.980;5.734;2023-04-03T11:49:59;2.80;;;0.95;;
48789;SDS011;41718;51.980;5.734;2023-04-03T12:05:46;1.00;;;0.82;;
48789;SDS011;41718;51.980;5.734;2023-04-03T12:48:17;1.77;;;0.73;;
48789;SDS011;41718;51.980;5.734;2023-04-03T12:53:29;1.75;;;0.85;;
48789;SDS011;41718;51.980;5.734;2023-04-03T12:58:35;3.50;;;1.00;;
48789;SDS011;41718;51.980;5.734;2023-04-03T13:03:37;1.40;;;0.95;;
48789;SDS011;41718;51.980;5.734;2023-04-03T13:08:48;2.08;;;0.82;;
48789;SDS011;41718;51.980;5.734;2023-04-03T13:13:55;2.17;;;1.48;;
48789;SDS011;41718;51.980;5.734;2023-04-03T13:19:06;1.17;;;0.75;;
48789;SDS011;41718;51.980;5.734;2023-04-03T13:24:17;1.90;;;1.00;;
48789;SDS011;41718;51.980;5.734;2023-04-03T13:29:27;0.82;;;0.73;;
48789;SDS011;41718;51.980;5.734;2023-04-03T13:34:37;2.60;;;1.20;;
48789;SDS011;41718;51.980;5.734;2023-04-03T13:39:41;2.40;;;0.77;;
48789;SDS011;41718;51.980;5.734;2023-04-03T13:44:46;1.70;;;0.98;;
48789;SDS011;41718;51.980;5.734;2023-04-03T13:49:59;4.05;;;1.10;;
48789;SDS011;41718;51.980;5.734;2023-04-03T13:55:51;1.73;;;1.15;;
48789;SDS011;41718;51.980;5.734;2023-04-03T14:05:56;1.85;;;0.90;;
48789;SDS011;41718;51.980;5.734;2023-04-03T14:10:58;2.38;;;1.33;;
48789;SDS011;41718;51.980;5.734;2023-04-03T14:15:59;2.25;;;1.00;;
48789;SDS011;41718;51.980;5.734;2023-04-03T14:26:22;1.48;;;1.23;;
48789;SDS011;41718;51.980;5.734;2023-04-03T14:31:25;4.75;;;1.52;;
48789;SDS011;41718;51.980;5.734;2023-04-03T14:36:28;2.17;;;1.27;;
48789;SDS011;41718;51.980;5.734;2023-04-03T14:41:30;2.70;;;1.02;;
48789;SDS011;41718;51.980;5.734;2023-04-03T14:46:33;2.53;;;1.30;;
48789;SDS011;41718;51.980;5.734;2023-04-03T14:51:57;3.15;;;1.30;;
48789;SDS011;41718;51.980;5.734;2023-04-03T14:56:59;2.78;;;1.20;;
48789;SDS011;41718;51.980;5.734;2023-04-03T15:02:02;9.55;;;5.13;;
48789;SDS011;41718;51.980;5.734;2023-04-03T15:07:08;1.95;;;1.73;;
48789;SDS011;41718;51.980;5.734;2023-04-03T15:12:09;6.88;;;2.63;;
48789;SDS011;41718;51.980;5.734;2023-04-03T15:17:15;3.47;;;1.08;;
48789;SDS011;41718;51.980;5.734;2023-04-03T15:22:20;2.67;;;1.40;;
48789;SDS011;41718;51.980;5.734;2023-04-03T15:27:21;3.45;;;1.38;;
48789;SDS011;41718;51.980;5.734;2023-04-03T15:32:23;3.25;;;1.70;;
48789;SDS011;41718;51.980;5.734;2023-04-03T15:37:24;5.60;;;1.50;;
48789;SDS011;41718;51.980;5.734;2023-04-03T15:42:26;5.97;;;2.00;;
48789;SDS011;41718;51.980;5.734;2023-04-03T15:47:27;1.60;;;1.20;;
48789;SDS011;41718;51.980;5.734;2023-04-03T15:52:29;2.80;;;1.13;;
48789;SDS011;41718;51.980;5.734;2023-04-03T15:57:30;3.00;;;1.20;;
48789;SDS011;41718;51.980;5.734;2023-04-03T16:02:37;3.28;;;1.30;;
48789;SDS011;41718;51.980;5.734;2023-04-03T16:07:38;3.42;;;1.77;;
48789;SDS011;41718;51.980;5.734;2023-04-03T16:12:41;4.60;;;1.50;;
48789;SDS011;41718;51.980;5.734;2023-04-03T16:17:42;2.92;;;1.35;;
48789;SDS011;41718;51.980;5.734;2023-04-03T16:22:44;3.20;;;1.42;;
48789;SDS011;41718;51.980;5.734;2023-04-03T16:27:46;2.38;;;1.00;;
48789;SDS011;41718;51.980;5.734;2023-04-03T16:32:47;2.53;;;1.60;;
48789;SDS011;41718;51.980;5.734;2023-04-03T16:37:49;5.93;;;1.50;;
48789;SDS011;41718;51.980;5.734;2023-04-03T16:42:50;6.15;;;2.90;;
48789;SDS011;41718;51.980;5.734;2023-04-03T16:47:52;2.17;;;1.52;;
48789;SDS011;41718;51.980;5.734;2023-04-03T16:52:54;2.70;;;1.50;;
48789;SDS011;41718;51.980;5.734;2023-04-03T16:57:55;5.68;;;1.92;;
48789;SDS011;41718;51.980;5.734;2023-04-03T17:02:57;2.58;;;1.30;;
48789;SDS011;41718;51.980;5.734;2023-04-03T17:07:58;3.78;;;1.40;;
48789;SDS011;41718;51.980;5.734;2023-04-03T17:13:00;2.17;;;1.52;;
48789;SDS011;41718;51.980;5.734;2023-04-03T17:18:01;2.13;;;1.35;;
48789;SDS011;41718;51.980;5.734;2023-04-03T17:23:03;3.17;;;1.30;;
48789;SDS011;41718;51.980;5.734;2023-04-03T17:28:05;3.70;;;1.10;;
48789;SDS011;41718;51.980;5.734;2023-04-03T17:33:08;2.50;;;1.20;;
48789;SDS011;41718;51.980;5.734;2023-04-03T17:38:10;2.72;;;1.20;;
48789;SDS011;41718;51.980;5.734;2023-04-03T17:43:11;3.67;;;2.15;;
48789;SDS011;41718;51.980;5.734;2023-04-03T17:48:13;2.30;;;1.67;;
48789;SDS011;41718;51.980;5.734;2023-04-03T17:53:14;2.55;;;1.40;;
48789;SDS011;41718;51.980;5.734;2023-04-03T17:58:15;6.15;;;2.05;;
48789;SDS011;41718;51.980;5.734;2023-04-03T18:03:17;5.22;;;1.63;;
48789;SDS011;41718;51.980;5.734;2023-04-03T18:08:19;1.35;;;1.13;;
48789;SDS011;41718;51.980;5.734;2023-04-03T18:13:20;1.88;;;1.00;;
48789;SDS011;41718;51.980;5.734;2023-04-03T18:18:22;3.63;;;2.00;;
48789;SDS011;41718;51.980;5.734;2023-04-03T18:23:24;3.03;;;1.92;;
48789;SDS011;41718;51.980;5.734;2023-04-03T18:28:28;2.08;;;1.13;;
48789;SDS011;41718;51.980;5.734;2023-04-03T18:33:34;3.63;;;2.13;;
48789;SDS011;41718;51.980;5.734;2023-04-03T18:38:39;4.93;;;2.45;;
48789;SDS011;41718;51.980;5.734;2023-04-03T18:43:41;8.82;;;2.03;;
48789;SDS011;41718;51.980;5.734;2023-04-03T18:48:43;4.55;;;2.80;;
48789;SDS011;41718;51.980;5.734;2023-04-03T18:53:46;4.97;;;3.13;;
48789;SDS011;41718;51.980;5.734;2023-04-03T18:58:48;6.65;;;3.03;;
48789;SDS011;41718;51.980;5.734;2023-04-03T19:03:51;4.00;;;2.90;;
48789;SDS011;41718;51.980;5.734;2023-04-03T19:08:52;7.22;;;2.85;;
48789;SDS011;41718;51.980;5.734;2023-04-03T19:13:56;4.53;;;2.47;;
48789;SDS011;41718;51.980;5.734;2023-04-03T19:19:15;5.15;;;2.97;;
48789;SDS011;41718;51.980;5.734;2023-04-03T19:24:20;7.78;;;5.38;;
48789;SDS011;41718;51.980;5.734;2023-04-03T19:29:21;4.65;;;2.55;;
48789;SDS011;41718;51.980;5.734;2023-04-03T19:34:23;2.75;;;1.63;;
48789;SDS011;41718;51.980;5.734;2023-04-03T19:39:25;4.85;;;2.25;;
48789;SDS011;41718;51.980;5.734;2023-04-03T19:44:29;1.85;;;1.30;;
48789;SDS011;41718;51.980;5.734;2023-04-03T19:49:32;3.97;;;1.65;;
48789;SDS011;41718;51.980;5.734;2023-04-03T19:54:37;1.73;;;1.33;;
48789;SDS011;41718;51.980;5.734;2023-04-03T19:59:39;5.63;;;2.50;;
48789;SDS011;41718;51.980;5.734;2023-04-03T20:04:41;3.63;;;1.48;;
48789;SDS011;41718;51.980;5.734;2023-04-03T20:09:43;3.72;;;1.98;;
48789;SDS011;41718;51.980;5.734;2023-04-03T20:14:44;2.92;;;1.30;;
48789;SDS011;41718;51.980;5.734;2023-04-03T20:19:47;3.28;;;1.10;;
48789;SDS011;41718;51.980;5.734;2023-04-03T20:24:52;2.08;;;1.65;;
48789;SDS011;41718;51.980;5.734;2023-04-03T20:29:55;2.83;;;1.43;;
48789;SDS011;41718;51.980;5.734;2023-04-03T20:34:57;5.88;;;2.13;;
48789;SDS011;41718;51.980;5.734;2023-04-03T20:40:05;2.53;;;1.30;;
48789;SDS011;41718;51.980;5.734;2023-04-03T20:45:08;2.08;;;1.20;;
48789;SDS011;41718;51.980;5.734;2023-04-03T20:50:12;5.60;;;1.45;;
48789;SDS011;41718;51.980;5.734;2023-04-03T20:55:14;2.95;;;1.50;;
48789;SDS011;41718;51.980;5.734;2023-04-03T21:00:16;3.28;;;1.60;;
48789;SDS011;41718;51.980;5.734;2023-04-03T21:05:19;2.90;;;1.50;;
48789;SDS011;41718;51.980;5.734;2023-04-03T21:21:16;2.00;;;1.80;;
48789;SDS011;41718;51.980;5.734;2023-04-03T21:26:20;3.78;;;1.35;;
48789;SDS011;41718;51.980;5.734;2023-04-03T21:31:23;5.53;;;1.70;;
48789;SDS011;41718;51.980;5.734;2023-04-03T21:36:24;3.33;;;1.42;;
48789;SDS011;41718;51.980;5.734;2023-04-03T21:41:26;2.47;;;1.55;;
48789;SDS011;41718;51.980;5.734;2023-04-03T21:46:28;2.28;;;1.73;;
48789;SDS011;41718;51.980;5.734;2023-04-03T21:51:29;3.13;;;1.00;;
48789;SDS011;41718;51.980;5.734;2023-04-03T21:56:31;1.77;;;1.67;;
48789;SDS011;41718;51.980;5.734;2023-04-03T22:01:36;1.83;;;1.33;;
48789;SDS011;41718;51.980;5.734;2023-04-03T22:06:37;3.17;;;1.60;;
48789;SDS011;41718;51.980;5.734;2023-04-03T22:11:39;2.63;;;1.20;;
48789;SDS011;41718;51.980;5.734;2023-04-03T22:16:43;3.72;;;2.03;;
48789;SDS011;41718;51.980;5.734;2023-04-03T22:21:48;5.70;;;1.90;;
48789;SDS011;41718;51.980;5.734;2023-04-03T22:26:51;3.03;;;1.85;;
48789;SDS011;41718;51.980;5.734;2023-04-03T22:31:53;2.03;;;1.35;;
48789;SDS011;41718;51.980;5.734;2023-04-03T22:36:55;3.83;;;1.58;;
48789;SDS011;41718;51.980;5.734;2023-04-03T22:41:57;3.65;;;1.40;;
48789;SDS011;41718;51.980;5.734;2023-04-03T22:46:58;5.05;;;1.65;;
48789;SDS011;41718;51.980;5.734;2023-04-03T22:52:00;1.63;;;1.35;;
48789;SDS011;41718;51.980;5.734;2023-04-03T22:57:01;3.33;;;1.65;;
48789;SDS011;41718;51.980;5.734;2023-04-03T23:02:03;2.80;;;1.60;;
48789;SDS011;41718;51.980;5.734;2023-04-03T23:07:04;3.35;;;2.15;;
48789;SDS011;41718;51.980;5.734;2023-04-03T23:12:06;5.28;;;1.85;;
48789;SDS011;41718;51.980;5.734;2023-04-03T23:17:09;3.05;;;2.15;;
48789;SDS011;41718;51.980;5.734;2023-04-03T23:22:11;2.63;;;2.05;;
48789;SDS011;41718;51.980;5.734;2023-04-03T23:27:15;4.30;;;2.15;;
48789;SDS011;41718;51.980;5.734;2023-04-03T23:32:16;5.57;;;2.20;;
48789;SDS011;41718;51.980;5.734;2023-04-03T23:37:17;5.13;;;2.05;;
48789;SDS011;41718;51.980;5.734;2023-04-03T23:42:21;4.55;;;2.10;;
48789;SDS011;41718;51.980;5.734;2023-04-03T23:47:23;1.50;;;1.40;;
48789;SDS011;41718;51.980;5.734;2023-04-03T23:52:24;6.03;;;2.25;;
48789;SDS011;41718;51.980;5.734;2023-04-03T23:57:26;3.13;;;2.22;;
